Time;durP1;ratioP1;P1;durP2;ratioP2;P2;SDS_P1;SDS_P2;PMS_P1;PMS_P2;Temp;Humidity;BMP_temperature;BMP_pressure;BME280_temperature;BME280_humidity;BME280_pressure;Samples;Min_cycle;Max_cycle;Signal;HPM_P1;HPM_P2
2023/06/15 00:01:41;;;;;;;;;;;;;;;14.34;100.00;97563.03;18573860;32;20343;-53
2023/06/15 00:11:48;;;;;;;;;;;;;;;14.15;100.00;97555.69;18573151;32;19984;-50
2023/06/15 00:21:59;;;;;;;;;;;;;;;13.96;100.00;97558.44;18572417;32;19980;-52
2023/06/15 00:32:07;;;;;;;;;;;;;;;13.77;100.00;97544.03;18571861;32;19961;-54
2023/06/15 00:42:10;;;;;;;;;;;;;;;13.56;100.00;97564.13;18571088;32;20281;-52
2023/06/15 00:52:14;;;;;;;;;;;;;;;13.41;100.00;97563.56;18570543;32;20008;-49
2023/06/15 01:02:18;;;;;;;;;;;;;;;13.23;100.00;97563.19;18569681;32;20336;-55
2023/06/15 01:12:21;;;;;;;;;;;;;;;13.07;100.00;97556.31;18555095;31;19952;-55
2023/06/15 01:22:34;;;;;;;;;;;;;;;12.89;100.00;97555.94;18568987;32;20349;-55
2023/06/15 01:32:37;;;;;;;;;;;;;;;12.75;100.00;97555.84;18568597;32;19971;-54
2023/06/15 01:42:40;;;;;;;;;;;;;;;12.59;100.00;97559.78;18553182;32;20347;-54
2023/06/15 01:52:44;;;;;;;;;;;;;;;12.45;100.00;97555.03;18567042;32;20333;-54
2023/06/15 02:02:54;;;;;;;;;;;;;;;12.30;100.00;97558.66;18552320;32;19961;-54
2023/06/15 02:13:01;;;;;;;;;;;;;;;12.20;100.00;97559.56;18565568;32;20337;-53
2023/06/15 02:23:05;;;;;;;;;;;;;;;12.05;100.00;97556.97;18565667;32;19964;-55
2023/06/15 02:33:09;;;;;;;;;;;;;;;11.90;100.00;97559.78;18550634;32;19945;-54
2023/06/15 02:43:11;;;;;;;;;;;;;;;11.76;100.00;97560.41;18549414;32;19996;-53
2023/06/15 02:53:14;;;;;;;;;;;;;;;11.63;100.00;97567.22;18563781;32;20051;-55
2023/06/15 03:03:22;;;;;;;;;;;;;;;11.52;100.00;97569.19;18562783;32;20029;-53
2023/06/15 03:13:25;;;;;;;;;;;;;;;11.42;100.00;97576.56;18562714;32;19961;-55
2023/06/15 03:23:28;;;;;;;;;;;;;;;11.34;100.00;97586.06;18546969;32;19989;-53
2023/06/15 03:33:32;;;;;;;;;;;;;;;11.27;100.00;97591.75;18561463;32;20021;-55
2023/06/15 03:43:37;;;;;;;;;;;;;;;11.18;100.00;97596.94;18561603;32;19992;-53
2023/06/15 03:53:43;;;;;;;;;;;;;;;11.14;100.00;97611.28;18561048;31;19982;-55
2023/06/15 04:03:46;;;;;;;;;;;;;;;11.13;100.00;97621.31;18546536;32;19986;-54
2023/06/15 04:13:49;;;;;;;;;;;;;;;11.17;100.00;97621.59;18560223;32;20286;-54
2023/06/15 04:23:52;;;;;;;;;;;;;;;11.26;100.00;97638.06;18559899;32;19975;-55
2023/06/15 04:33:58;;;;;;;;;;;;;;;11.36;100.00;97644.25;18550957;32;19952;-54
2023/06/15 04:44:01;;;;;;;;;;;;;;;11.59;100.00;97646.59;18571156;32;19967;-55
2023/06/15 04:54:04;;;;;;;;;;;;;;;11.83;100.00;97658.41;18570755;32;19968;-56
2023/06/15 05:04:08;;;;;;;;;;;;;;;12.12;100.00;97674.00;18570184;32;19996;-55
2023/06/15 05:14:12;;;;;;;;;;;;;;;12.42;100.00;97679.53;18542376;32;19967;-56
2023/06/15 05:24:19;;;;;;;;;;;;;;;12.78;100.00;97676.53;18553863;32;19995;-55
2023/06/15 05:34:24;;;;;;;;;;;;;;;13.21;100.00;97682.13;18568247;32;19949;-55
2023/06/15 05:44:36;;;;;;;;;;;;;;;13.67;100.00;97703.38;18553199;32;19980;-55
2023/06/15 05:54:45;;;;;;;;;;;;;;;14.18;100.00;97704.69;18566789;32;19952;-55
2023/06/15 06:04:53;;;;;;;;;;;;;;;14.71;100.00;97714.53;18566630;32;19952;-53
2023/06/15 06:15:01;;;;;;;;;;;;;;;15.24;100.00;97726.22;18565840;32;19960;-54
2023/06/15 06:25:07;;;;;;;;;;;;;;;15.89;100.00;97735.41;18565196;32;19953;-58
2023/06/15 06:35:10;;;;;;;;;;;;;;;16.57;100.00;97738.34;18550480;32;20024;-58
2023/06/15 06:45:13;;;;;;;;;;;;;;;17.23;100.00;97754.31;18549591;32;20328;-58
2023/06/15 06:55:16;;;;;;;;;;;;;;;17.82;97.27;97758.81;18562610;32;19971;-58
2023/06/15 07:05:19;;;;;;;;;;;;;;;18.33;89.58;97748.34;18548989;32;20370;-58
2023/06/15 07:15:22;;;;;;;;;;;;;;;18.83;87.26;97750.66;18562284;32;20012;-58
2023/06/15 07:25:25;;;;;;;;;;;;;;;19.23;82.28;97755.19;18562134;32;19957;-58
2023/06/15 07:35:28;;;;;;;;;;;;;;;19.66;77.09;97750.72;18561021;31;19998;-58
2023/06/15 07:45:30;;;;;;;;;;;;;;;20.10;74.14;97759.59;18561125;32;20000;-58
2023/06/15 07:55:34;;;;;;;;;;;;;;;20.47;70.16;97757.94;18560646;32;20348;-58
2023/06/15 08:05:37;;;;;;;;;;;;;;;20.82;68.14;97754.16;18562495;32;20274;-58
2023/06/15 08:15:40;;;;;;;;;;;;;;;21.12;66.05;97754.88;18559220;32;20000;-58
2023/06/15 08:25:45;;;;;;;;;;;;;;;21.56;64.83;97750.94;18572465;31;19944;-58
2023/06/15 08:35:48;;;;;;;;;;;;;;;21.96;58.13;97753.81;18557765;31;20348;-58
2023/06/15 08:45:56;;;;;;;;;;;;;;;22.36;54.23;97763.38;18557484;32;19949;-58
2023/06/15 08:55:58;;;;;;;;;;;;;;;22.66;52.86;97752.87;18570801;32;19961;-58
2023/06/15 09:06:02;;;;;;;;;;;;;;;23.23;51.58;97766.75;18570022;32;20004;-58
2023/06/15 09:16:07;;;;;;;;;;;;;;;23.50;52.48;97765.13;18568902;32;19965;-58
2023/06/15 09:26:28;;;;;;;;;;;;;;;23.66;49.73;97762.38;18569040;32;20004;-58
2023/06/15 09:36:44;;;;;;;;;;;;;;;23.93;47.03;97770.97;18568135;31;19969;-58
2023/06/15 09:46:51;;;;;;;;;;;;;;;24.26;50.06;97756.00;18553813;32;19949;-58
2023/06/15 09:56:55;;;;;;;;;;;;;;;24.73;45.92;97764.56;18567425;32;20028;-58
2023/06/15 10:07:01;;;;;;;;;;;;;;;25.04;45.33;97775.50;18566553;32;19981;-58
2023/06/15 10:17:05;;;;;;;;;;;;;;;25.13;42.55;97761.47;18551354;31;19953;-59
2023/06/15 10:27:08;;;;;;;;;;;;;;;25.50;42.82;97757.44;18565369;32;19981;-58
2023/06/15 10:37:35;;;;;;;;;;;;;;;25.66;38.35;97760.87;18564230;31;19973;-58
2023/06/15 10:47:47;;;;;;;;;;;;;;;25.90;41.12;97747.06;18564128;32;19968;-58
2023/06/15 10:58:08;;;;;;;;;;;;;;;26.44;40.32;97750.72;18563438;32;19960;-58
2023/06/15 11:08:17;;;;;;;;;;;;;;;27.05;40.20;97745.97;18562748;32;19979;-58
2023/06/15 11:18:20;;;;;;;;;;;;;;;27.50;38.22;97752.47;18547701;32;19961;-58
2023/06/15 11:28:26;;;;;;;;;;;;;;;27.58;36.28;97749.78;18562018;32;19968;-58
2023/06/15 11:38:39;;;;;;;;;;;;;;;27.83;35.80;97759.16;18546612;31;20348;-58
2023/06/15 11:48:43;;;;;;;;;;;;;;;28.32;35.46;97740.47;18560512;32;19971;-58
2023/06/15 11:58:47;;;;;;;;;;;;;;;28.67;36.27;97728.00;18560691;32;20298;-58
2023/06/15 12:08:50;;;;;;;;;;;;;;;29.28;34.50;97723.91;18545884;32;19996;-58
2023/06/15 12:18:55;;;;;;;;;;;;;;;29.67;33.91;97715.63;18559851;32;20336;-58
2023/06/15 12:29:13;;;;;;;;;;;;;;;30.28;34.28;97720.41;18532976;32;19972;-58
2023/06/15 12:39:18;;;;;;;;;;;;;;;30.72;31.23;97712.75;18559458;31;19961;-58
2023/06/15 12:49:21;;;;;;;;;;;;;;;30.71;30.34;97708.34;18559352;32;20284;-58
2023/06/15 12:59:24;;;;;;;;;;;;;;;31.06;30.56;97707.44;18568244;31;20008;-58
2023/06/15 13:09:27;;;;;;;;;;;;;;;31.37;31.31;97707.69;18569915;32;19997;-58
2023/06/15 13:19:35;;;;;;;;;;;;;;;31.50;29.60;97704.41;18569241;32;19971;-58
2023/06/15 13:29:39;;;;;;;;;;;;;;;32.09;27.77;97707.13;18568936;32;19956;-58
2023/06/15 13:39:44;;;;;;;;;;;;;;;32.47;27.45;97706.41;18552856;31;20278;-58
2023/06/15 13:49:49;;;;;;;;;;;;;;;32.96;25.85;97694.25;18568035;32;20325;-58
2023/06/15 13:59:53;;;;;;;;;;;;;;;33.02;26.84;97693.38;18567201;32;20023;-58
2023/06/15 14:09:56;;;;;;;;;;;;;;;33.41;21.35;97685.66;18566204;32;19956;-59
2023/06/15 14:19:58;;;;;;;;;;;;;;;33.83;22.76;97691.06;18565676;32;19964;-58
2023/06/15 14:30:03;;;;;;;;;;;;;;;34.01;22.56;97690.75;18564970;32;19965;-59
2023/06/15 14:40:07;;;;;;;;;;;;;;;34.26;23.58;97687.47;18564097;31;20012;-58
2023/06/15 14:50:10;;;;;;;;;;;;;;;34.39;20.46;97679.28;18563856;32;19982;-58
2023/06/15 15:00:13;;;;;;;;;;;;;;;34.59;20.35;97674.47;18548752;32;19999;-58
2023/06/15 15:10:18;;;;;;;;;;;;;;;32.51;22.07;97670.00;18563008;32;20302;-58
2023/06/15 15:20:21;;;;;;;;;;;;;;;31.08;24.92;97660.37;18562231;32;19996;-58
2023/06/15 15:30:24;;;;;;;;;;;;;;;30.31;26.92;97652.66;18561999;32;19996;-58
2023/06/15 15:40:29;;;;;;;;;;;;;;;29.44;29.46;97642.75;18533831;32;19961;-58
2023/06/15 15:50:33;;;;;;;;;;;;;;;28.86;29.11;97645.41;18561630;32;19967;-58
2023/06/15 16:00:37;;;;;;;;;;;;;;;28.60;27.78;97644.50;18547096;32;20017;-58
2023/06/15 16:10:40;;;;;;;;;;;;;;;28.25;30.44;97634.00;18560785;32;20008;-58
2023/06/15 16:20:43;;;;;;;;;;;;;;;27.76;30.89;97631.28;18545876;32;19996;-57
2023/06/15 16:30:47;;;;;;;;;;;;;;;27.53;28.70;97628.69;18566779;32;19981;-57
2023/06/15 16:40:50;;;;;;;;;;;;;;;27.10;29.64;97631.88;18557131;32;20329;-57
2023/06/15 16:50:52;;;;;;;;;;;;;;;26.46;33.20;97623.59;18571073;32;20359;-57
2023/06/15 17:00:56;;;;;;;;;;;;;;;26.03;34.52;97623.81;18570730;32;19960;-57
2023/06/15 17:10:59;;;;;;;;;;;;;;;25.67;38.56;97628.78;18570125;32;19961;-57
2023/06/15 17:21:10;;;;;;;;;;;;;;;25.71;40.03;97630.44;18569339;32;19963;-56
2023/06/15 17:31:13;;;;;;;;;;;;;;;25.81;35.12;97648.38;18554805;31;19960;-57
2023/06/15 17:41:19;;;;;;;;;;;;;;;25.48;35.67;97660.91;18553741;32;19967;-57
2023/06/15 17:51:23;;;;;;;;;;;;;;;25.56;36.48;97664.62;18567686;32;20264;-57
2023/06/15 18:01:26;;;;;;;;;;;;;;;25.31;37.71;97667.72;18553009;32;19953;-57
2023/06/15 18:11:29;;;;;;;;;;;;;;;24.91;38.20;97665.38;18566530;32;20348;-58
2023/06/15 18:21:32;;;;;;;;;;;;;;;24.47;42.18;97670.00;18566103;32;19973;-58
2023/06/15 18:31:35;;;;;;;;;;;;;;;23.77;46.55;97666.03;18564872;32;19985;-58
2023/06/15 18:41:38;;;;;;;;;;;;;;;23.34;49.14;97676.00;18564346;32;20009;-58
2023/06/15 18:51:42;;;;;;;;;;;;;;;22.88;51.78;97679.06;18563759;32;19994;-58
2023/06/15 19:01:45;;;;;;;;;;;;;;;22.39;53.99;97682.78;18562952;32;19975;-58
2023/06/15 19:11:52;;;;;;;;;;;;;;;21.95;56.99;97674.34;18562782;32;20008;-58
2023/06/15 19:22:01;;;;;;;;;;;;;;;21.57;59.27;97679.03;18562193;31;19953;-58
2023/06/15 19:32:05;;;;;;;;;;;;;;;21.24;67.14;97690.87;18561837;32;20314;-57
2023/06/15 19:42:08;;;;;;;;;;;;;;;20.85;76.01;97679.28;18561448;32;19971;-58
2023/06/15 19:52:12;;;;;;;;;;;;;;;20.49;79.16;97694.44;18560967;32;20466;-58
2023/06/15 20:02:15;;;;;;;;;;;;;;;20.23;81.89;97692.69;18549479;32;19975;-58
2023/06/15 20:12:18;;;;;;;;;;;;;;;20.02;83.29;97711.03;18559767;32;20017;-58
2023/06/15 20:22:20;;;;;;;;;;;;;;;19.76;86.68;97720.16;18546194;32;20333;-58
2023/06/15 20:32:24;;;;;;;;;;;;;;;19.51;89.47;97728.16;18572517;32;19952;-58
2023/06/15 20:42:28;;;;;;;;;;;;;;;19.28;93.14;97731.16;18571658;32;20012;-57
2023/06/15 20:52:30;;;;;;;;;;;;;;;19.07;95.11;97733.75;18571261;32;19956;-58
2023/06/15 21:02:37;;;;;;;;;;;;;;;18.83;97.70;97739.72;18570576;32;19990;-57
2023/06/15 21:12:42;;;;;;;;;;;;;;;18.59;98.97;97743.72;18569046;31;19949;-57
2023/06/15 21:22:46;;;;;;;;;;;;;;;18.39;100.00;97744.34;18542467;32;19952;-58
2023/06/15 21:32:48;;;;;;;;;;;;;;;18.17;100.00;97743.34;18569360;32;19952;-58
2023/06/15 21:42:51;;;;;;;;;;;;;;;17.98;100.00;97745.53;18553638;32;20246;-58
2023/06/15 21:52:57;;;;;;;;;;;;;;;17.81;100.00;97746.25;18567711;32;19961;-58
2023/06/15 22:03:01;;;;;;;;;;;;;;;17.58;100.00;97758.03;18552946;32;20310;-58
2023/06/15 22:13:05;;;;;;;;;;;;;;;17.34;100.00;97754.84;18551483;32;19988;-58
2023/06/15 22:23:07;;;;;;;;;;;;;;;17.12;100.00;97767.41;18565583;32;20030;-58
2023/06/15 22:33:10;;;;;;;;;;;;;;;16.91;100.00;97762.44;18565104;32;19965;-58
2023/06/15 22:43:13;;;;;;;;;;;;;;;16.79;100.00;97759.41;18564410;32;20000;-58
2023/06/15 22:53:16;;;;;;;;;;;;;;;16.68;100.00;97753.37;18549533;32;20005;-58
2023/06/15 23:03:20;;;;;;;;;;;;;;;16.54;100.00;97764.34;18563297;32;19948;-58
2023/06/15 23:13:25;;;;;;;;;;;;;;;16.35;100.00;97764.47;18562587;32;19979;-58
2023/06/15 23:23:33;;;;;;;;;;;;;;;16.20;100.00;97757.41;18562221;32;20336;-58
2023/06/15 23:33:36;;;;;;;;;;;;;;;16.11;100.00;97767.41;18561875;32;19979;-58
2023/06/15 23:43:39;;;;;;;;;;;;;;;16.10;100.00;97760.34;18561001;32;20369;-58
2023/06/15 23:53:43;;;;;;;;;;;;;;;15.99;100.00;97751.56;18560739;31;19997;-58
